Jarl — SFB6983 — position and weather

sailwx.info

Track history (hours):
 
Tides and Currents Weather Stations Pressure Air Temp Water Temp Dewpoint Dewpoint Depression Visibility Wind Speed Wind Dir Waves Ship Positions

Jarl

Last reported at 2017-Aug-10 05:38 UTC. Time now 2017-Aug-18 10:49 UTC.
Position N 59°21' E 018°08'.
Warning: this ship's position is 8 days out of date.

Length 13 m.

Type: Port tender. MMSI: 265671980.

Date/timePositionNaut miles runAvg speedWind from/ knotsBaromVisibWave heightAir tempDewpointWater temp
2017-Aug-10 05:38N 59°21' E 018°08'0 0.0
2017-Aug-10 05:26N 59°21' E 018°08'  
2017-Aug-07 11:35N 59°21' E 018°08'0 2.2
2017-Aug-07 11:29N 59°21' E 018°08'2 4.1
2017-Aug-07 10:58N 59°19' E 018°06'3 3.3
2017-Aug-07 10:11N 59°19' E 018°01'1 3.5
2017-Aug-07 10:00N 59°19' E 018°02'1 1.3
2017-Aug-07 09:22N 59°20' E 018°04'0 0.8
2017-Aug-07 09:00N 59°19' E 018°03'2 1.9
2017-Aug-07 08:12N 59°19' E 018°06'1 6.1
2017-Aug-07 08:00N 59°19' E 018°08'1 2.5
2017-Aug-07 07:27N 59°21' E 018°08'  
Track history (hours):
 
Tides and Currents Weather Stations Pressure Air Temp Water Temp Dewpoint Dewpoint Depression Visibility Wind Speed Wind Dir Waves Ship Positions

Jarl

Last reported at 2017-Aug-10 05:38 UTC. Time now 2017-Aug-18 10:49 UTC.
Position N 59°21' E 018°08'.
Warning: this ship's position is 8 days out of date.

Length 13 m.

Type: Port tender. MMSI: 265671980.

Date/timePositionNaut miles runAvg speedWind from/ knotsBaromVisibWave heightAir tempDewpointWater temp
2017-Aug-10 05:38N 59°21' E 018°08'0 0.0
2017-Aug-10 05:26N 59°21' E 018°08'  
2017-Aug-07 11:35N 59°21' E 018°08'0 2.2
2017-Aug-07 11:29N 59°21' E 018°08'2 4.1
2017-Aug-07 10:58N 59°19' E 018°06'3 3.3
2017-Aug-07 10:11N 59°19' E 018°01'1 3.5
2017-Aug-07 10:00N 59°19' E 018°02'1 1.3
2017-Aug-07 09:22N 59°20' E 018°04'0 0.8
2017-Aug-07 09:00N 59°19' E 018°03'2 1.9
2017-Aug-07 08:12N 59°19' E 018°06'1 6.1
2017-Aug-07 08:00N 59°19' E 018°08'1 2.5
2017-Aug-07 07:27N 59°21' E 018°08'  

Dump ship's entire track history